createdAt,value
2017-06-21T04:00:31.979Z,65.23
2017-06-21T04:00:57.455Z,65.05
2017-06-21T04:01:22.934Z,65.33
2017-06-21T04:01:48.410Z,65.23
2017-06-21T04:02:13.877Z,65.05
2017-06-21T04:02:39.344Z,65.14
2017-06-21T04:03:04.821Z,64.95
2017-06-21T04:03:30.296Z,65.23
2017-06-21T04:03:55.766Z,65.33
2017-06-21T04:04:21.235Z,65.23
2017-06-21T04:04:46.716Z,65.33
2017-06-21T04:05:12.182Z,65.23
2017-06-21T04:05:37.665Z,65.23
2017-06-21T04:06:03.152Z,65.23
2017-06-21T04:06:28.595Z,65.14
2017-06-21T04:06:54.057Z,65.05
2017-06-21T04:07:19.515Z,65.23
2017-06-21T04:07:44.990Z,65.05
2017-06-21T04:08:10.486Z,65.05
2017-06-21T04:08:35.959Z,64.95
2017-06-21T04:09:01.417Z,65.14
2017-06-21T04:09:26.901Z,65.14
2017-06-21T04:09:52.370Z,65.05
2017-06-21T04:10:17.837Z,64.66
2017-06-21T04:10:43.303Z,64.66
2017-06-21T04:11:08.776Z,64.85
2017-06-21T04:11:34.243Z,64.95
2017-06-21T04:11:59.717Z,64.85
2017-06-21T04:12:25.174Z,64.95
2017-06-21T04:12:50.686Z,64.85
2017-06-21T04:13:16.165Z,65.14
2017-06-21T04:13:41.598Z,65.05
2017-06-21T04:14:07.095Z,65.42
2017-06-21T04:14:32.542Z,65.42
2017-06-21T04:14:58.011Z,65.14
2017-06-21T04:15:23.493Z,65.42
2017-06-21T04:15:48.977Z,65.42
2017-06-21T04:16:14.470Z,65.05
2017-06-21T04:16:39.957Z,65.33
2017-06-21T04:17:05.414Z,65.14
2017-06-21T04:17:30.879Z,65.14
2017-06-21T04:17:56.372Z,65.42
2017-06-21T04:18:21.892Z,65.23
2017-06-21T04:18:47.378Z,65.42
2017-06-21T04:19:12.860Z,65.33
2017-06-21T04:19:38.365Z,65.23
2017-06-21T04:20:03.842Z,64.95
2017-06-21T04:20:29.313Z,65.05
2017-06-21T04:20:54.856Z,65.05
2017-06-21T04:21:20.327Z,65.33
2017-06-21T04:21:45.761Z,65.23
2017-06-21T04:22:11.275Z,65.42
2017-06-21T04:22:36.769Z,65.52
2017-06-21T04:23:02.243Z,65.42
2017-06-21T04:23:27.731Z,65.33
2017-06-21T04:23:53.237Z,65.23
2017-06-21T04:24:18.756Z,65.14
2017-06-21T04:24:44.274Z,65.14
2017-06-21T04:25:09.776Z,64.95
2017-06-21T04:25:35.261Z,65.23
2017-06-21T04:26:00.735Z,65.14
2017-06-21T04:26:26.235Z,65.23
2017-06-21T04:26:51.668Z,65.52
2017-06-21T04:27:17.130Z,65.14
2017-06-21T04:27:42.597Z,65.05
2017-06-21T04:28:08.068Z,65.42
2017-06-21T04:28:33.605Z,65.14
2017-06-21T04:28:59.068Z,65.14
2017-06-21T04:29:24.578Z,65.42
2017-06-21T04:29:50.092Z,65.23
2017-06-21T04:30:15.599Z,65.33
2017-06-21T04:30:41.092Z,65.33
2017-06-21T04:31:06.567Z,65.05
2017-06-21T04:31:32.018Z,65.05
2017-06-21T04:31:57.491Z,64.95
2017-06-21T04:32:22.955Z,65.23
2017-06-21T04:32:48.412Z,65.05
2017-06-21T04:33:13.876Z,65.23
2017-06-21T04:33:39.353Z,64.95
2017-06-21T04:34:04.801Z,65.23
2017-06-21T04:34:30.279Z,65.05
2017-06-21T04:34:55.738Z,64.76
2017-06-21T04:35:21.206Z,65.14
2017-06-21T04:35:46.752Z,65.05
2017-06-21T04:36:12.221Z,65.08
2017-06-21T04:36:37.707Z,64.95
2017-06-21T04:37:03.159Z,64.66
2017-06-21T04:37:28.627Z,64.95
2017-06-21T04:37:54.094Z,64.95
2017-06-21T04:38:19.582Z,64.95
2017-06-21T04:38:45.056Z,64.95
2017-06-21T04:39:10.541Z,64.76
2017-06-21T04:39:36.030Z,65.23
2017-06-21T04:40:01.526Z,65.17
2017-06-21T04:40:27.021Z,64.98
2017-06-21T04:40:52.459Z,65.17
2017-06-21T04:41:17.928Z,64.69
2017-06-21T04:41:43.420Z,64.98
2017-06-21T04:42:08.896Z,64.89
2017-06-21T04:42:34.356Z,64.5
2017-06-21T04:42:59.815Z,64.5
2017-06-21T04:43:25.294Z,64.22
2017-06-21T04:43:50.752Z,64.31
2017-06-21T04:44:16.215Z,64.02
2017-06-21T04:44:41.828Z,63.83
2017-06-21T04:45:07.348Z,63.64
2017-06-21T04:45:32.861Z,63.83
2017-06-21T04:45:58.332Z,63.92
2017-06-21T04:46:23.794Z,63.45
2017-06-21T04:46:49.305Z,63.16
2017-06-21T04:47:14.742Z,63.26
2017-06-21T04:47:40.228Z,63.45
2017-06-21T04:48:05.693Z,63.16
2017-06-21T04:48:31.291Z,63.38
2017-06-21T04:48:56.874Z,63.38
2017-06-21T04:49:22.442Z,63.29
2017-06-21T04:49:47.864Z,63.29
2017-06-21T04:50:13.364Z,63.19
2017-06-21T04:50:38.927Z,63
2017-06-21T04:51:04.409Z,63
2017-06-21T04:51:29.998Z,62.71
2017-06-21T04:51:55.479Z,62.9
2017-06-21T04:52:20.974Z,62.81
2017-06-21T04:52:46.469Z,62.52
2017-06-21T04:53:12.010Z,62.33
2017-06-21T04:53:37.496Z,62.13
2017-06-21T04:54:03.076Z,62.13
2017-06-21T04:54:28.435Z,62.33
2017-06-21T04:54:53.986Z,62.33
2017-06-21T04:55:19.483Z,62.26
2017-06-21T04:55:44.955Z,62.07
2017-06-21T04:56:10.444Z,61.69
2017-06-21T04:56:35.986Z,61.3
2017-06-21T04:57:01.454Z,61.59
2017-06-21T04:57:26.948Z,61.49
2017-06-21T04:57:52.421Z,61.49
2017-06-21T04:58:17.887Z,61.21
2017-06-21T04:58:43.400Z,60.82
2017-06-21T04:59:08.879Z,60.92
2017-06-21T04:59:34.354Z,61.02
2017-06-21T04:59:59.861Z,60.92
2017-06-21T05:00:25.323Z,60.72
2017-06-21T05:00:50.749Z,60.92
2017-06-21T05:01:16.222Z,61.02
2017-06-21T05:01:41.701Z,60.72
2017-06-21T05:02:07.184Z,60.53
2017-06-21T05:02:32.668Z,60.63
2017-06-21T05:02:58.149Z,60.72
2017-06-21T05:03:23.621Z,60.72
2017-06-21T05:03:49.092Z,60.63
2017-06-21T05:04:14.558Z,60.53
2017-06-21T05:04:40.043Z,60.66
2017-06-21T05:05:05.511Z,60.47
2017-06-21T05:05:31.003Z,60.38
2017-06-21T05:05:56.464Z,60.25
2017-06-21T05:06:21.938Z,60.38
2017-06-21T05:06:47.419Z,60.18
2017-06-21T05:07:12.870Z,60.28
2017-06-21T05:07:38.339Z,59.89
2017-06-21T05:08:03.834Z,60.08
2017-06-21T05:08:29.319Z,59.89
2017-06-21T05:08:54.799Z,59.61
2017-06-21T05:09:20.252Z,59.51
2017-06-21T05:09:45.690Z,59.51
2017-06-21T05:10:11.180Z,59.61
2017-06-21T05:10:36.716Z,59.51
2017-06-21T05:11:02.235Z,58.94
2017-06-21T05:11:27.737Z,58.94
2017-06-21T05:11:53.357Z,58.84
2017-06-21T05:12:18.836Z,59.03
2017-06-21T05:12:44.307Z,58.45
2017-06-21T05:13:09.773Z,58.64
2017-06-21T05:13:35.273Z,58.58
2017-06-21T05:14:00.722Z,58.45
2017-06-21T05:14:26.210Z,58.1
2017-06-21T05:14:51.687Z,58.26
2017-06-21T05:15:17.224Z,58.29
2017-06-21T05:15:42.672Z,58.39
2017-06-21T05:16:08.124Z,58.39
2017-06-21T05:16:33.664Z,58.29
2017-06-21T05:16:59.127Z,58.77
2017-06-21T05:17:24.546Z,58.87
2017-06-21T05:17:50.034Z,57.81
2017-06-21T05:18:15.518Z,57.14
2017-06-21T05:18:41.040Z,57.9
2017-06-21T05:19:06.505Z,57.9
2017-06-21T05:19:32.022Z,57.62
2017-06-21T05:19:57.495Z,58.1
2017-06-21T05:20:22.984Z,58.2
2017-06-21T05:20:48.461Z,58.29
2017-06-21T05:21:13.947Z,58.1
2017-06-21T05:21:39.467Z,57.81
2017-06-21T05:22:04.968Z,57.81
2017-06-21T05:22:30.457Z,57.9
2017-06-21T05:22:55.976Z,58
2017-06-21T05:23:21.484Z,57.33
2017-06-21T05:23:46.974Z,57.43
2017-06-21T05:25:00.293Z,56.76
2017-06-21T05:25:25.770Z,56.66
2017-06-21T05:25:51.245Z,56.66
2017-06-21T05:26:16.811Z,56.66
2017-06-21T05:26:42.280Z,56.85
2017-06-21T05:27:07.818Z,57.14
2017-06-21T05:27:33.295Z,57.04
2017-06-21T05:27:58.765Z,57.04
2017-06-21T05:28:24.228Z,57.14
2017-06-21T05:28:49.692Z,57.14
2017-06-21T05:29:15.146Z,56.76
2017-06-21T05:29:40.595Z,56.76
2017-06-21T05:30:06.060Z,56.85
2017-06-21T05:30:31.610Z,56.66
2017-06-21T05:30:57.078Z,56.18
2017-06-21T05:31:22.573Z,56.66
2017-06-21T05:31:48.048Z,56.56
2017-06-21T05:32:13.512Z,56.76
2017-06-21T05:32:39.093Z,57.14
2017-06-21T05:33:04.545Z,56.85
2017-06-21T05:33:30.074Z,57.04
2017-06-21T05:33:55.599Z,56.66
2017-06-21T05:34:21.088Z,56.66
2017-06-21T05:34:46.604Z,56.95
2017-06-21T05:35:12.065Z,56.66
2017-06-21T05:35:37.518Z,56.92
2017-06-21T05:36:02.965Z,56.76
2017-06-21T05:36:28.419Z,57.52
2017-06-21T05:36:53.930Z,57.23
2017-06-21T05:37:19.409Z,57.33
2017-06-21T05:37:44.890Z,57.23
2017-06-21T05:38:10.345Z,57.23
2017-06-21T05:38:35.801Z,57.43
2017-06-21T05:39:01.289Z,57.52
2017-06-21T05:39:26.725Z,57.14
2017-06-21T05:39:52.220Z,56.56
2017-06-21T05:40:17.703Z,56.56
2017-06-21T05:40:43.177Z,56.66
2017-06-21T05:41:08.737Z,56.59
2017-06-21T05:41:34.195Z,56.21
2017-06-21T05:41:59.698Z,56.37
2017-06-21T05:42:25.140Z,56.21
2017-06-21T05:42:50.650Z,56.4
2017-06-21T05:43:16.109Z,56.37
2017-06-21T05:43:41.594Z,56.21
2017-06-21T05:44:07.149Z,55.91
2017-06-21T05:44:32.546Z,55.91
2017-06-21T05:44:58.002Z,55.91
2017-06-21T05:45:23.495Z,56.01
2017-06-21T05:45:48.976Z,55.73
2017-06-21T05:46:14.454Z,55.91
2017-06-21T05:46:39.905Z,55.73
2017-06-21T05:47:05.381Z,56.3
2017-06-21T05:47:30.842Z,56.3
2017-06-21T05:47:56.350Z,56.4
2017-06-21T05:48:21.804Z,56.49
2017-06-21T05:48:47.266Z,56.21
2017-06-21T05:49:12.724Z,56.01
2017-06-21T05:49:38.242Z,56.21
2017-06-21T05:50:03.706Z,56.21
2017-06-21T05:50:29.196Z,55.82
2017-06-21T05:50:54.652Z,55.91
2017-06-21T05:51:20.148Z,55.63
2017-06-21T05:51:45.651Z,55.53
2017-06-21T05:52:11.109Z,55.44
2017-06-21T05:52:36.634Z,55.05
2017-06-21T05:53:02.063Z,55.05
2017-06-21T05:53:27.505Z,55.44
2017-06-21T05:53:52.942Z,55.24
2017-06-21T05:54:18.455Z,55.73
2017-06-21T05:54:43.893Z,55.53
2017-06-21T05:55:09.346Z,55.66
2017-06-21T05:55:34.796Z,55.05
2017-06-21T05:56:00.312Z,55.15
2017-06-21T05:56:25.856Z,54.99
2017-06-21T05:56:51.317Z,54.89
2017-06-21T05:57:16.784Z,55.18
2017-06-21T05:57:42.315Z,54.69
2017-06-21T05:58:07.883Z,54.31
2017-06-21T05:58:33.364Z,54.22
2017-06-21T05:58:58.874Z,54.31
2017-06-21T05:59:24.340Z,54.41
2017-06-21T05:59:49.792Z,54.31
2017-06-21T06:00:15.312Z,54.22
2017-06-21T06:00:40.740Z,53.92
2017-06-21T06:01:06.214Z,53.54
2017-06-21T06:01:31.691Z,53.64
2017-06-21T06:01:57.187Z,54.02
2017-06-21T06:02:22.638Z,54.02
2017-06-21T06:02:48.120Z,54.02
2017-06-21T06:03:13.606Z,53.74
2017-06-21T06:03:39.059Z,53.64
2017-06-21T06:04:04.511Z,53.83
2017-06-21T06:04:30.004Z,53.64
2017-06-21T06:04:55.458Z,53.83
2017-06-21T06:05:20.920Z,53.74
2017-06-21T06:05:46.413Z,53.74
2017-06-21T06:06:11.888Z,53.74
2017-06-21T06:06:37.381Z,53.74
2017-06-21T06:07:02.851Z,53.86
2017-06-21T06:07:28.343Z,53.64
2017-06-21T06:07:53.943Z,53.45
2017-06-21T06:08:19.444Z,53.16
2017-06-21T06:08:44.914Z,52.97
2017-06-21T06:09:10.390Z,52.87
2017-06-21T06:09:35.869Z,52.87
2017-06-21T06:10:01.338Z,53.06
2017-06-21T06:10:26.779Z,53.45
2017-06-21T06:10:52.276Z,53.54
2017-06-21T06:11:17.721Z,53.25
2017-06-21T06:11:43.257Z,53.16
2017-06-21T06:12:08.749Z,53.06
2017-06-21T06:12:34.170Z,52.87
2017-06-21T06:12:59.623Z,53.54
2017-06-21T06:13:25.089Z,53.16
2017-06-21T06:13:50.558Z,53.16
2017-06-21T06:14:16.054Z,53.54
2017-06-21T06:14:41.508Z,54.12
2017-06-21T06:15:06.975Z,53.83
2017-06-21T06:15:32.392Z,54.02
2017-06-21T06:15:57.872Z,53.74
2017-06-21T06:16:23.356Z,54.02
2017-06-21T06:16:48.848Z,53.64
2017-06-21T06:17:14.303Z,53.64
2017-06-21T06:17:39.767Z,53.54
2017-06-21T06:18:05.239Z,53.35
2017-06-21T06:18:30.720Z,53.64
2017-06-21T06:18:56.174Z,53.64
2017-06-21T06:19:21.626Z,53.83
2017-06-21T06:19:47.133Z,53.92
2017-06-21T06:20:12.642Z,54.12
2017-06-21T06:20:38.119Z,53.83
2017-06-21T06:21:03.599Z,53.83
2017-06-21T06:21:29.096Z,53.92
2017-06-21T06:21:54.556Z,54.02
2017-06-21T06:22:20.018Z,53.38
2017-06-21T06:22:45.491Z,53.38
2017-06-21T06:23:10.968Z,53.38
2017-06-21T06:23:36.427Z,53.57
2017-06-21T06:24:01.904Z,53.57
2017-06-21T06:24:27.381Z,52.51
2017-06-21T06:24:52.863Z,52.51
2017-06-21T06:25:18.340Z,51.84
2017-06-21T06:25:43.824Z,51.64
2017-06-21T06:26:09.283Z,51.35
2017-06-21T06:26:34.774Z,51.64
2017-06-21T06:27:00.256Z,51.48
2017-06-21T06:27:25.722Z,51.17
2017-06-21T06:27:51.237Z,51.17
2017-06-21T06:28:16.774Z,51.38
2017-06-21T06:28:42.301Z,51.29
2017-06-21T06:29:07.759Z,51.45
2017-06-21T06:29:33.295Z,51.57
2017-06-21T06:29:58.691Z,51.48
2017-06-21T06:30:24.174Z,51.57
2017-06-21T06:30:49.659Z,51.48
2017-06-21T06:31:15.135Z,51.29
2017-06-21T06:31:40.614Z,50.61
2017-06-21T06:32:06.135Z,50.32
2017-06-21T06:32:31.599Z,50.51
2017-06-21T06:32:57.195Z,50.42
2017-06-21T06:33:22.561Z,50.42
2017-06-21T06:33:48.063Z,50.32
2017-06-21T06:34:13.615Z,50.71
2017-06-21T06:34:39.126Z,50.61
2017-06-21T06:35:04.576Z,50.51
2017-06-21T06:35:30.027Z,50.81
2017-06-21T06:35:55.492Z,50.9
2017-06-21T06:36:20.971Z,51.29
2017-06-21T06:36:46.437Z,51.29
2017-06-21T06:37:11.897Z,51.19
2017-06-21T06:37:37.359Z,50.9
2017-06-21T06:38:02.857Z,50.9
2017-06-21T06:38:28.332Z,50.99
2017-06-21T06:38:53.844Z,50.9
2017-06-21T06:39:19.302Z,51.19
2017-06-21T06:39:44.761Z,50.93
2017-06-21T06:40:10.219Z,50.93
2017-06-21T06:40:35.711Z,51.02
2017-06-21T06:41:01.194Z,50.83
2017-06-21T06:41:26.693Z,50.63
2017-06-21T06:41:52.184Z,50.45
2017-06-21T06:42:17.669Z,50.54
2017-06-21T06:42:43.281Z,50.35
2017-06-21T06:43:08.683Z,50.25
2017-06-21T06:43:34.151Z,49.87
2017-06-21T06:43:59.633Z,50.25
2017-06-21T06:44:25.116Z,50.18
2017-06-21T06:44:50.590Z,50.18
2017-06-21T06:45:16.076Z,49.6
2017-06-21T06:45:41.542Z,49.68
2017-06-21T06:46:07.047Z,50.18
2017-06-21T06:46:32.477Z,50.09
2017-06-21T06:46:57.983Z,50.27
2017-06-21T06:47:23.447Z,50.09
2017-06-21T06:47:48.915Z,50.27
2017-06-21T06:48:14.400Z,50.09
2017-06-21T06:48:39.887Z,50.27
2017-06-21T06:49:05.330Z,49.99
2017-06-21T06:49:30.791Z,49.79
2017-06-21T06:49:56.238Z,50.01
2017-06-21T06:50:21.680Z,49.05
2017-06-21T06:50:47.205Z,48.57
2017-06-21T06:51:12.680Z,48.08
2017-06-21T06:51:38.154Z,48.18
2017-06-21T06:52:03.645Z,47.97
2017-06-21T06:52:29.124Z,47.87
2017-06-21T06:52:54.657Z,47.97
2017-06-21T06:53:20.190Z,48.25
2017-06-21T06:53:45.636Z,48.57
2017-06-21T06:54:11.130Z,48.18
2017-06-21T06:54:36.580Z,48.76
2017-06-21T06:55:02.104Z,48.76
2017-06-21T06:55:27.608Z,48.66
2017-06-21T06:55:53.047Z,47.99
2017-06-21T06:56:18.551Z,48.18
2017-06-21T06:56:44.049Z,47.99
2017-06-21T06:57:09.571Z,47.8
2017-06-21T06:57:35.029Z,47.41
2017-06-21T06:58:00.544Z,46.83
2017-06-21T06:58:26.008Z,47.12
2017-06-21T06:58:51.470Z,47.03
2017-06-21T06:59:16.953Z,47.41
2017-06-21T06:59:42.422Z,47.6
2017-06-21T07:00:07.883Z,47.51
2017-06-21T07:00:33.369Z,48.08
2017-06-21T07:00:58.891Z,47.99
2017-06-21T07:01:24.350Z,47.7
2017-06-21T07:01:49.867Z,47.41
2017-06-21T07:02:15.337Z,47.41
2017-06-21T07:02:40.804Z,47.31
2017-06-21T07:03:06.269Z,47.51
2017-06-21T07:03:31.714Z,47.6
2017-06-21T07:03:57.359Z,47.89
2017-06-21T07:04:22.886Z,47.99
2017-06-21T07:04:48.356Z,47.6
2017-06-21T07:05:13.965Z,47.7
2017-06-21T07:05:39.426Z,47.44
2017-06-21T07:06:05.095Z,47.44
2017-06-21T07:06:30.576Z,46.66
2017-06-21T07:06:56.328Z,47.05
2017-06-21T07:07:21.578Z,46.86
2017-06-21T07:07:47.117Z,47.63
2017-06-21T07:08:12.605Z,47.44
2017-06-21T07:08:38.125Z,47.53
2017-06-21T07:09:03.759Z,47.24
2017-06-21T07:09:29.470Z,47.53
2017-06-21T07:09:54.994Z,47.44
2017-06-21T07:10:20.503Z,47.24
2017-06-21T07:10:45.954Z,47.63
2017-06-21T07:11:11.417Z,47.65
2017-06-21T07:11:36.884Z,47.24
2017-06-21T07:12:02.334Z,46.88
2017-06-21T07:12:27.797Z,46.97
2017-06-21T07:12:53.275Z,46.49
2017-06-21T07:13:18.720Z,46.2
2017-06-21T07:13:44.199Z,46.2
2017-06-21T07:14:09.668Z,46.11
2017-06-21T07:14:35.187Z,46.2
2017-06-21T07:15:00.665Z,46.11
2017-06-21T07:15:26.156Z,46.3
2017-06-21T07:15:51.637Z,46.11
2017-06-21T07:16:17.147Z,45.82
2017-06-21T07:16:42.644Z,45.43
2017-06-21T07:17:08.117Z,45.82
2017-06-21T07:17:33.577Z,45.82
2017-06-21T07:17:59.057Z,45.62
2017-06-21T07:18:24.552Z,45.82
2017-06-21T07:18:50.025Z,45.82
2017-06-21T07:19:15.474Z,44.76
2017-06-21T07:19:40.943Z,45.24
2017-06-21T07:20:49.163Z,45.92
2017-06-21T07:21:14.623Z,45.92
2017-06-21T07:21:40.092Z,45.53
2017-06-21T07:22:05.562Z,45.72
2017-06-21T07:22:31.032Z,45.92
2017-06-21T07:22:56.490Z,45.45
2017-06-21T07:23:21.956Z,45.53
2017-06-21T07:23:47.434Z,45.45
2017-06-21T07:24:12.877Z,45.75
2017-06-21T07:24:38.357Z,44.78
2017-06-21T07:25:03.824Z,44.97
2017-06-21T07:25:29.265Z,45.55
2017-06-21T07:25:54.770Z,44.78
2017-06-21T07:26:20.249Z,44.78
2017-06-21T07:26:45.716Z,44.49
2017-06-21T07:27:11.242Z,44.68
2017-06-21T07:27:36.727Z,44.2
2017-06-21T07:28:02.179Z,44.39
2017-06-21T07:28:27.667Z,44.68
2017-06-21T07:28:53.255Z,44.2
2017-06-21T07:29:18.690Z,44.59
2017-06-21T07:29:44.165Z,44.68
2017-06-21T07:30:09.653Z,44.78
2017-06-21T07:30:35.115Z,45.07
2017-06-21T07:31:00.581Z,45.17
2017-06-21T07:31:26.061Z,45.07
2017-06-21T07:31:51.494Z,44.78
2017-06-21T07:32:16.953Z,44.68
2017-06-21T07:32:42.438Z,44.6
2017-06-21T07:33:07.879Z,44.9
2017-06-21T07:33:33.356Z,45.09
2017-06-21T07:33:58.835Z,45
2017-06-21T07:34:24.286Z,44.7
2017-06-21T07:34:49.756Z,44.32
2017-06-21T07:35:15.251Z,43.74
2017-06-21T07:35:40.726Z,43.54
2017-06-21T07:36:06.190Z,43.64
2017-06-21T07:36:31.694Z,44.42
2017-06-21T07:36:57.174Z,43.45
2017-06-21T07:37:22.672Z,43.45
2017-06-21T07:37:48.151Z,43.54
2017-06-21T07:38:13.604Z,43.84
2017-06-21T07:38:39.075Z,43.74
2017-06-21T07:39:04.524Z,43.45
2017-06-21T07:39:30.029Z,43.64
2017-06-21T07:39:55.503Z,43.74
2017-06-21T07:40:20.979Z,43.64
2017-06-21T07:40:46.463Z,43.74
2017-06-21T07:41:11.980Z,43.26
2017-06-21T07:41:37.426Z,43.64
2017-06-21T07:42:02.890Z,42.68
2017-06-21T07:42:28.393Z,42.77
2017-06-21T07:42:53.888Z,42.97
2017-06-21T07:43:19.351Z,43.16
2017-06-21T07:43:44.828Z,43.16
2017-06-21T07:44:10.350Z,42.87
2017-06-21T07:44:35.822Z,43.64
2017-06-21T07:45:01.299Z,43.64
2017-06-21T07:45:26.775Z,43.06
2017-06-21T07:45:52.230Z,43.64
2017-06-21T07:46:17.710Z,43.45
2017-06-21T07:46:43.196Z,43.35
2017-06-21T07:47:08.672Z,43.37
2017-06-21T07:47:34.124Z,43.47
2017-06-21T07:47:59.652Z,43.47
2017-06-21T07:48:25.133Z,43.37
2017-06-21T07:48:50.608Z,43.37
2017-06-21T07:49:16.105Z,43.18
2017-06-21T07:49:41.598Z,42.5
2017-06-21T07:50:07.098Z,42.6
2017-06-21T07:50:32.636Z,42.62
2017-06-21T07:50:58.179Z,43.01
2017-06-21T07:51:23.690Z,42.41
2017-06-21T07:51:49.130Z,41.75
2017-06-21T07:52:14.572Z,41.75
2017-06-21T07:52:40.046Z,42.02
2017-06-21T07:53:05.552Z,42.41
2017-06-21T07:53:31.010Z,42.5
2017-06-21T07:53:56.483Z,42.5
2017-06-21T07:54:21.992Z,42.52
2017-06-21T07:54:47.472Z,42.41
2017-06-21T07:55:12.930Z,42.52
2017-06-21T07:55:38.428Z,42.6
2017-06-21T07:56:03.940Z,42.5
2017-06-21T07:56:29.404Z,42.12
2017-06-21T07:56:54.894Z,42.12
2017-06-21T07:57:20.368Z,42.14
2017-06-21T07:57:45.823Z,42.6
2017-06-21T07:58:11.309Z,42.6
2017-06-21T07:58:36.805Z,42.62
2017-06-21T07:59:02.259Z,43.01
2017-06-21T07:59:27.713Z,42.62
2017-06-21T07:59:53.189Z,42.82
2017-06-21T08:00:18.659Z,42.43
2017-06-21T08:00:44.135Z,42.14
2017-06-21T08:01:09.592Z,42.04
2017-06-21T08:01:35.094Z,42.14
2017-06-21T08:02:00.600Z,42.24
2017-06-21T08:02:26.075Z,42.04
2017-06-21T08:02:51.581Z,42.52
2017-06-21T08:03:17.072Z,42.52
2017-06-21T08:03:42.569Z,42.16
2017-06-21T08:04:08.044Z,42.45
2017-06-21T08:04:33.489Z,41.87
2017-06-21T08:04:58.955Z,40.9
2017-06-21T08:05:24.435Z,40.81
2017-06-21T08:05:49.931Z,40.61
2017-06-21T08:06:15.405Z,40.71
2017-06-21T08:06:40.865Z,41
2017-06-21T08:07:06.321Z,41.19
2017-06-21T08:07:31.779Z,40.59
2017-06-21T08:07:57.226Z,40.9
2017-06-21T08:08:22.680Z,41.08
2017-06-21T08:08:48.187Z,41.17
2017-06-21T08:09:13.674Z,41.08
2017-06-21T08:09:39.168Z,41.36
2017-06-21T08:10:04.677Z,41.36
2017-06-21T08:10:30.169Z,41.48
2017-06-21T08:10:55.672Z,41.48
2017-06-21T08:11:21.121Z,41.97
2017-06-21T08:11:46.617Z,41.77
2017-06-21T08:12:12.069Z,41.87
2017-06-21T08:12:37.517Z,41.87
2017-06-21T08:13:02.992Z,41.48
2017-06-21T08:13:28.551Z,41.58
2017-06-21T08:13:53.970Z,41.87
2017-06-21T08:14:19.454Z,41.77
2017-06-21T08:14:44.961Z,41.99
2017-06-21T08:15:10.466Z,41.97
2017-06-21T08:15:35.925Z,42.28
2017-06-21T08:16:01.404Z,42.28
2017-06-21T08:16:26.867Z,42.18
2017-06-21T08:16:52.352Z,42.37
2017-06-21T08:17:17.875Z,42.18
2017-06-21T08:17:43.356Z,41.5
2017-06-21T08:18:08.840Z,41.31
2017-06-21T08:18:34.312Z,41.31
2017-06-21T08:18:59.813Z,41.24
2017-06-21T08:19:25.305Z,40.94
2017-06-21T08:19:50.761Z,40.75
2017-06-21T08:20:16.298Z,40.75
2017-06-21T08:20:41.860Z,40.94
2017-06-21T08:21:07.323Z,40.75
2017-06-21T08:21:32.830Z,40.75
2017-06-21T08:21:58.398Z,40.17
2017-06-21T08:22:23.988Z,39.69
2017-06-21T08:22:49.492Z,39.49
2017-06-21T08:23:14.983Z,39.39
2017-06-21T08:23:40.449Z,39.29
2017-06-21T08:24:05.945Z,39.39
2017-06-21T08:24:31.430Z,39.78
2017-06-21T08:24:56.942Z,39.88
2017-06-21T08:25:22.453Z,39.78
2017-06-21T08:25:47.981Z,39.39
2017-06-21T08:26:13.428Z,39.39
2017-06-21T08:26:38.916Z,39.39
2017-06-21T08:27:04.365Z,39.49
2017-06-21T08:27:29.865Z,39.88
2017-06-21T08:27:55.362Z,39.78
2017-06-21T08:28:20.860Z,40.26
2017-06-21T08:28:46.360Z,40.26
2017-06-21T08:29:11.811Z,40.17
2017-06-21T08:29:37.354Z,40.56
2017-06-21T08:30:02.843Z,40.46
2017-06-21T08:30:28.341Z,40.28
2017-06-21T08:30:53.816Z,40.28
2017-06-21T08:31:19.257Z,40.09
2017-06-21T08:31:44.734Z,40.19
2017-06-21T08:32:10.213Z,40.58
2017-06-21T08:32:35.696Z,40.48
2017-06-21T08:33:01.177Z,40.19
2017-06-21T08:33:26.658Z,40.19
2017-06-21T08:33:52.148Z,40.58
2017-06-21T08:34:17.626Z,40.48
2017-06-21T08:34:43.099Z,39.9
2017-06-21T08:35:08.666Z,39.41
2017-06-21T08:35:34.155Z,39.32
2017-06-21T08:35:59.630Z,39.7
2017-06-21T08:36:25.117Z,39.41
2017-06-21T08:36:50.576Z,39.41
2017-06-21T08:37:16.080Z,40.09
2017-06-21T08:37:41.551Z,40.21
2017-06-21T08:38:07.047Z,40.4
2017-06-21T08:38:32.493Z,40.01
2017-06-21T08:38:57.961Z,39.82
2017-06-21T08:39:23.434Z,39.62
2017-06-21T08:39:48.885Z,39.53
2017-06-21T08:40:14.356Z,39.53
2017-06-21T08:40:39.838Z,39.34
2017-06-21T08:41:05.377Z,38.95
2017-06-21T08:41:30.860Z,38.46
2017-06-21T08:41:56.321Z,38.66
2017-06-21T08:42:21.802Z,38.85
2017-06-21T08:42:47.280Z,38.95
2017-06-21T08:43:12.746Z,38.56
2017-06-21T08:43:38.201Z,38.85
2017-06-21T08:44:03.692Z,38.66
2017-06-21T08:44:29.146Z,38.95
2017-06-21T08:44:54.631Z,38.95
2017-06-21T08:45:20.157Z,39.62
2017-06-21T08:45:45.633Z,39.34
2017-06-21T08:46:11.107Z,39.24
2017-06-21T08:46:36.555Z,38.85
2017-06-21T08:47:02.042Z,38.95
2017-06-21T08:47:27.549Z,38.95
2017-06-21T08:47:53.026Z,38.56
2017-06-21T08:48:18.577Z,38.27
2017-06-21T08:48:44.046Z,38.56
2017-06-21T08:49:09.538Z,38.66
2017-06-21T08:49:35.031Z,39.04
2017-06-21T08:50:00.471Z,38.85
2017-06-21T08:50:25.949Z,38.76
2017-06-21T08:50:51.428Z,38.37
2017-06-21T08:51:16.873Z,38.46
2017-06-21T08:51:42.343Z,38.66
2017-06-21T08:52:07.800Z,38.85
2017-06-21T08:52:33.252Z,39.26
2017-06-21T08:52:58.711Z,39.26
2017-06-21T08:53:24.189Z,39.45
2017-06-21T08:53:49.695Z,38.87
2017-06-21T08:54:15.196Z,38.58
2017-06-21T08:54:40.665Z,38.48
2017-06-21T08:55:06.161Z,38.29
2017-06-21T08:55:31.657Z,37.71
2017-06-21T08:55:57.124Z,37.13
2017-06-21T08:56:22.587Z,36.82
2017-06-21T08:56:48.078Z,37.21
2017-06-21T08:57:13.517Z,37.21
2017-06-21T08:57:38.980Z,37.4
2017-06-21T08:58:04.458Z,37.79
2017-06-21T08:58:29.914Z,37.69
2017-06-21T08:58:55.388Z,37.88
2017-06-21T08:59:20.838Z,37.98
2017-06-21T08:59:46.350Z,38.46
2017-06-21T09:00:11.867Z,38.37
2017-06-21T09:00:37.358Z,38.45
2017-06-21T09:01:02.831Z,38.45
2017-06-21T09:01:28.344Z,38.35
2017-06-21T09:01:53.814Z,38.64
2017-06-21T09:02:19.307Z,39.03
2017-06-21T09:02:44.775Z,39.03
2017-06-21T09:03:10.226Z,38.83
2017-06-21T09:03:35.723Z,38.35
2017-06-21T09:04:01.176Z,38.64
2017-06-21T09:04:26.646Z,38.15
2017-06-21T09:04:52.143Z,38.15
2017-06-21T09:05:17.631Z,38.35
2017-06-21T09:05:43.087Z,38.45
2017-06-21T09:06:08.572Z,38.35
2017-06-21T09:06:34.050Z,38.15
2017-06-21T09:06:59.528Z,37.77
2017-06-21T09:07:24.999Z,38.45
2017-06-21T09:07:50.450Z,38.35
2017-06-21T09:08:15.946Z,38.15
2017-06-21T09:08:41.430Z,37.48
2017-06-21T09:09:06.889Z,37.38
2017-06-21T09:09:32.354Z,37.19
2017-06-21T09:09:57.872Z,37.48
2017-06-21T09:10:23.343Z,37.28
2017-06-21T09:10:48.806Z,37.26
2017-06-21T09:11:14.275Z,37.65
2017-06-21T09:11:39.741Z,38.23
2017-06-21T09:12:05.213Z,38.33
2017-06-21T09:12:30.695Z,38.13
2017-06-21T09:12:56.143Z,38.06
2017-06-21T09:13:21.619Z,38.53
2017-06-21T09:13:47.110Z,38.54
2017-06-21T09:14:12.579Z,38.73
2017-06-21T09:14:38.065Z,38.83
2017-06-21T09:15:03.542Z,38.35
2017-06-21T09:15:29.020Z,38.25
2017-06-21T09:15:54.514Z,37.48
2017-06-21T09:16:20.006Z,37.48
2017-06-21T09:16:45.491Z,37.28
2017-06-21T09:17:10.969Z,37.4
2017-06-21T09:17:36.463Z,37.67
2017-06-21T09:18:01.939Z,38.06
2017-06-21T09:18:27.441Z,37.77
2017-06-21T09:18:52.918Z,37.69
2017-06-21T09:19:18.358Z,37.79
2017-06-21T09:19:43.833Z,37.4
2017-06-21T09:20:09.281Z,37.3
2017-06-21T09:20:34.783Z,37.79
2017-06-21T09:21:00.262Z,37.79
2017-06-21T09:21:25.759Z,38.46
2017-06-21T09:21:51.224Z,38.27
2017-06-21T09:22:16.706Z,38.46
2017-06-21T09:22:42.160Z,38.37
2017-06-21T09:23:07.637Z,37.98
2017-06-21T09:23:33.112Z,38.07
2017-06-21T09:23:58.676Z,38.27
2017-06-21T09:24:24.136Z,38.17
2017-06-21T09:24:49.607Z,38.37
2017-06-21T09:25:15.088Z,38.58
2017-06-21T09:25:40.571Z,38.58
2017-06-21T09:26:06.066Z,38.85
2017-06-21T09:26:31.570Z,39.26
2017-06-21T09:26:57.103Z,39.55
2017-06-21T09:27:22.656Z,39.55
2017-06-21T09:27:48.214Z,39.65
2017-06-21T09:28:13.664Z,38.87
2017-06-21T09:28:39.162Z,38.87
2017-06-21T09:29:04.656Z,38.78
2017-06-21T09:29:30.121Z,38.96
2017-06-21T09:29:55.575Z,39.06
2017-06-21T09:30:21.050Z,39.06
2017-06-21T09:30:46.497Z,39.26